Terminal Aerodrome Forecast
Issued by NWS

Home | Current Version | Previous Version | Text Only | Print | Product List | Glossary Off
Versions: 1 2 3 4 5 6 7 8 9 10 11 12 13 14 15 16 17

000
FTUS43 KGRB 222300
TAFCWA
TAF
KCWA 222329Z 2300/2324 34008G15KT P6SM FEW050
     FM230100 01006KT P6SM SKC
     FM230500 VRB03KT P6SM SCT250
     FM231300 12006KT P6SM SCT120 OVC200
     FM232000 14009KT P6SM SCT040 BKN080
      AMD LTD TO CLD VIS AND WIND 2303/2311=

USA.gov is the U.S. government's official web portal to all federal, state and local government web resources and services.